createdAt,value
2018-03-03T00:02:04.818Z,91767.48
2018-03-03T00:04:31.237Z,91774.52
2018-03-03T00:06:57.574Z,91772.35
2018-03-03T00:09:23.981Z,91769.92
2018-03-03T00:11:50.370Z,91759.10
2018-03-03T00:14:16.677Z,91753.83
2018-03-03T00:16:43.017Z,91760.80
2018-03-03T00:19:09.923Z,91761.34
2018-03-03T00:21:36.465Z,91753.83
2018-03-03T00:24:02.961Z,91748.95
2018-03-03T00:26:29.709Z,91739.93
2018-03-03T00:28:56.143Z,91744.20
2018-03-03T00:31:22.597Z,91736.02
2018-03-03T00:33:48.960Z,91736.58
2018-03-03T00:36:15.422Z,91740.85
2018-03-03T00:38:41.780Z,91738.62
2018-03-03T00:41:08.208Z,91721.20
2018-03-03T00:43:34.552Z,91711.70
2018-03-03T00:46:00.865Z,91713.25
2018-03-03T00:48:27.219Z,91730.38
2018-03-03T00:50:53.556Z,91735.22
2018-03-03T00:53:19.952Z,91728.88
2018-03-03T00:55:46.348Z,91727.70
2018-03-03T00:58:12.729Z,91718.67
2018-03-03T01:00:39.150Z,91712.30
2018-03-03T01:03:05.556Z,91700.28
2018-03-03T01:05:31.906Z,91703.95
2018-03-03T01:07:58.228Z,91705.59
2018-03-03T01:10:24.746Z,91704.72
2018-03-03T01:12:51.125Z,91700.28
2018-03-03T01:15:17.456Z,91702.46
2018-03-03T01:17:43.839Z,91711.97
2018-03-03T01:20:10.184Z,91718.17
2018-03-03T01:22:36.534Z,91738.02
2018-03-03T01:25:02.983Z,91760.53
2018-03-03T01:27:29.352Z,91787.11
2018-03-03T01:29:55.688Z,91781.16
2018-03-03T01:32:22.161Z,91795.39
2018-03-03T01:34:48.453Z,91806.71
2018-03-03T01:37:14.745Z,91811.81
2018-03-03T01:39:41.083Z,91807.88
2018-03-03T01:42:07.468Z,91787.36
2018-03-03T01:44:33.778Z,91766.62
2018-03-03T01:47:00.107Z,91766.31
2018-03-03T01:49:26.407Z,91766.73
2018-03-03T01:51:52.706Z,91774.07
2018-03-03T01:54:19.101Z,91784.37
2018-03-03T01:56:45.429Z,91786.41
2018-03-03T01:59:11.726Z,91797.16
2018-03-03T02:01:38.250Z,91809.21
2018-03-03T02:04:04.544Z,91817.95
2018-03-03T02:06:30.908Z,91818.61
2018-03-03T02:08:57.289Z,91820.83
2018-03-03T02:11:23.622Z,91823.62
2018-03-03T02:13:49.974Z,91825.70
2018-03-03T02:16:16.374Z,91830.02
2018-03-03T02:18:42.773Z,91839.81
2018-03-03T02:21:09.135Z,91846.65
2018-03-03T02:23:35.494Z,91855.11
2018-03-03T02:26:01.800Z,91860.00
2018-03-03T02:28:28.142Z,91870.02
2018-03-03T02:30:54.571Z,91877.38
2018-03-03T02:33:20.866Z,91874.34
2018-03-03T02:35:47.200Z,91883.84
2018-03-03T02:38:13.580Z,91873.16
2018-03-03T02:40:40.055Z,91870.97
2018-03-03T02:43:06.422Z,91865.61
2018-03-03T02:45:32.789Z,91861.73
2018-03-03T02:47:59.173Z,91874.69
2018-03-03T02:50:25.580Z,91858.09
2018-03-03T02:52:51.916Z,91853.66
2018-03-03T02:55:18.210Z,91846.08
2018-03-03T02:57:44.567Z,91832.09
2018-03-03T03:00:10.906Z,91828.03
2018-03-03T03:02:37.326Z,91837.47
2018-03-03T03:05:03.653Z,91843.42
2018-03-03T03:07:30.048Z,91838.12
2018-03-03T03:09:56.368Z,91836.55
2018-03-03T03:12:22.704Z,91832.20
2018-03-03T03:14:49.058Z,91829.71
2018-03-03T03:17:15.365Z,91829.83
2018-03-03T03:19:42.281Z,91834.72
2018-03-03T03:22:11.430Z,91843.44
2018-03-03T03:24:38.625Z,91851.91
2018-03-03T03:27:08.143Z,91856.10
2018-03-03T03:29:34.960Z,91851.34
2018-03-03T03:32:01.413Z,91854.27
2018-03-03T03:34:27.713Z,91849.30
2018-03-03T03:36:54.110Z,91840.72
2018-03-03T03:39:20.412Z,91835.05
2018-03-03T03:41:46.773Z,91837.66
2018-03-03T03:44:13.163Z,91838.61
2018-03-03T03:46:39.565Z,91840.77
2018-03-03T03:49:05.877Z,91849.75
2018-03-03T03:51:32.401Z,91846.45
2018-03-03T03:53:58.769Z,91850.36
2018-03-03T03:56:25.156Z,91853.95
2018-03-03T03:58:51.519Z,91853.95
2018-03-03T04:01:18.014Z,91866.48
2018-03-03T04:03:44.439Z,91854.05
2018-03-03T04:06:10.812Z,91864.98
2018-03-03T04:08:37.110Z,91862.88
2018-03-03T04:11:03.490Z,91862.30
2018-03-03T04:13:29.856Z,91864.10
2018-03-03T04:15:56.169Z,91862.84
2018-03-03T04:18:22.676Z,91868.73
2018-03-03T04:20:49.227Z,91875.64
2018-03-03T04:23:15.554Z,91870.50
2018-03-03T04:25:41.933Z,91869.59
2018-03-03T04:28:08.534Z,91868.91
2018-03-03T04:30:34.972Z,91867.01
2018-03-03T04:33:01.499Z,91870.62
2018-03-03T04:35:27.918Z,91869.06
2018-03-03T04:37:54.258Z,91870.02
2018-03-03T04:40:20.742Z,91866.23
2018-03-03T04:42:47.229Z,91869.23
2018-03-03T04:45:13.642Z,91874.19
2018-03-03T04:47:40.017Z,91872.03
2018-03-03T04:50:06.488Z,91870.22
2018-03-03T04:52:32.912Z,91868.13
2018-03-03T04:54:59.409Z,91883.93
2018-03-03T04:57:25.875Z,91887.63
2018-03-03T04:59:52.509Z,91890.74
2018-03-03T05:02:22.779Z,91900.41
2018-03-03T05:07:55.505Z,91899.47
2018-03-03T05:10:33.804Z,91909.14
2018-03-03T05:13:20.879Z,91917.88
2018-03-03T05:16:02.232Z,91922.84
2018-03-03T05:18:34.449Z,91936.03
2018-03-03T05:21:06.954Z,91930.11
2018-03-03T05:23:39.369Z,91941.72
2018-03-03T05:26:11.678Z,91940.25
2018-03-03T05:28:44.050Z,91935.83
2018-03-03T05:31:16.567Z,91940.94
2018-03-03T05:33:49.002Z,91935.85
2018-03-03T05:36:31.323Z,91939.02
2018-03-03T05:42:05.043Z,91935.73
2018-03-03T05:44:35.249Z,91938.23
2018-03-03T05:47:21.322Z,91938.50
2018-03-03T05:50:03.507Z,91944.25
2018-03-03T05:52:49.762Z,91955.29
2018-03-03T05:55:35.202Z,91974.16
2018-03-03T05:58:01.753Z,91971.50
2018-03-03T06:00:34.154Z,91962.89
2018-03-03T06:03:01.546Z,91967.63
2018-03-03T06:05:34.051Z,91965.94
2018-03-03T06:08:06.572Z,91958.08
2018-03-03T06:10:35.883Z,91963.53
2018-03-03T06:13:02.284Z,91968.03
2018-03-03T06:15:28.702Z,91970.14
2018-03-03T06:17:55.144Z,91978.93
2018-03-03T06:20:21.856Z,91964.66
2018-03-03T06:22:48.279Z,91979.55
2018-03-03T06:25:14.693Z,91978.13
2018-03-03T06:27:41.172Z,91985.25
2018-03-03T06:30:07.519Z,91987.59
2018-03-03T06:32:34.047Z,91978.67
2018-03-03T06:35:00.418Z,91993.84
2018-03-03T06:37:26.820Z,91998.16
2018-03-03T06:39:53.178Z,92002.98
2018-03-03T06:42:19.727Z,92003.27
2018-03-03T06:44:46.213Z,92004.64
2018-03-03T06:47:12.736Z,92015.06
2018-03-03T06:49:39.076Z,92011.17
2018-03-03T06:52:05.531Z,92014.48
2018-03-03T06:54:32.036Z,92013.36
2018-03-03T06:56:58.411Z,92019.50
2018-03-03T06:59:24.846Z,92010.08
2018-03-03T07:01:51.337Z,92017.80
2018-03-03T07:04:17.737Z,92022.63
2018-03-03T07:06:44.247Z,92023.80
2018-03-03T07:09:10.660Z,92020.27
2018-03-03T07:11:37.127Z,92022.86
2018-03-03T07:14:03.612Z,92033.55
2018-03-03T07:16:30.108Z,92037.44
2018-03-03T07:18:56.735Z,92039.59
2018-03-03T07:21:23.764Z,92040.97
2018-03-03T07:23:50.183Z,92047.80
2018-03-03T07:26:16.561Z,92046.08
2018-03-03T07:28:43.162Z,92056.73
2018-03-03T07:31:09.656Z,92062.56
2018-03-03T07:33:36.094Z,92050.73
2018-03-03T07:36:02.590Z,92051.02
2018-03-03T07:38:28.966Z,92055.82
2018-03-03T07:40:55.486Z,92047.91
2018-03-03T07:43:22.037Z,92055.49
2018-03-03T07:45:48.500Z,92054.27
2018-03-03T07:48:14.919Z,92062.84
2018-03-03T07:50:41.474Z,92061.45
2018-03-03T07:53:07.900Z,92067.20
2018-03-03T07:55:34.294Z,92064.81
2018-03-03T07:58:00.749Z,92069.41
2018-03-03T08:00:27.178Z,92073.08
2018-03-03T08:02:53.605Z,92079.09
2018-03-03T08:05:20.137Z,92077.69
2018-03-03T08:07:46.606Z,92073.36
2018-03-03T08:10:13.150Z,92068.64
2018-03-03T08:12:39.653Z,92075.14
2018-03-03T08:15:06.095Z,92069.25
2018-03-03T08:17:32.511Z,92077.66
2018-03-03T08:19:58.922Z,92077.52
2018-03-03T08:22:25.463Z,92079.81
2018-03-03T08:24:51.852Z,92092.30
2018-03-03T08:27:18.329Z,92088.83
2018-03-03T08:29:45.665Z,92083.80
2018-03-03T08:32:12.199Z,92090.59
2018-03-03T08:34:38.674Z,92089.92
2018-03-03T08:37:05.026Z,92089.23
2018-03-03T08:39:31.390Z,92085.26
2018-03-03T08:41:57.861Z,92087.63
2018-03-03T08:44:24.257Z,92093.21
2018-03-03T08:46:50.610Z,92093.30
2018-03-03T08:49:16.985Z,92095.17
2018-03-03T08:51:43.507Z,92091.30
2018-03-03T08:54:09.884Z,92097.27
2018-03-03T08:56:36.332Z,92091.47
2018-03-03T08:59:02.760Z,92096.33
2018-03-03T09:01:29.307Z,92098.36
2018-03-03T09:03:56.027Z,92091.97
2018-03-03T09:06:22.600Z,92108.02
2018-03-03T09:08:48.958Z,92105.19
2018-03-03T09:11:15.412Z,92106.19
2018-03-03T09:13:41.947Z,92099.58
2018-03-03T09:16:08.590Z,92100.06
2018-03-03T09:18:35.094Z,92104.28
2018-03-03T09:21:01.551Z,92104.32
2018-03-03T09:23:27.984Z,92114.29
2018-03-03T09:25:54.443Z,92109.26
2018-03-03T09:28:20.820Z,92107.56
2018-03-03T09:30:47.227Z,92109.75
2018-03-03T09:33:13.617Z,92108.67
2018-03-03T09:35:39.979Z,92110.50
2018-03-03T09:38:06.358Z,92109.73
2018-03-03T09:40:32.729Z,92106.73
2018-03-03T09:42:59.140Z,92117.83
2018-03-03T09:45:25.492Z,92113.75
2018-03-03T09:47:51.868Z,92117.61
2018-03-03T09:50:18.225Z,92112.25
2018-03-03T09:52:44.753Z,92106.91
2018-03-03T09:55:11.179Z,92112.80
2018-03-03T09:57:37.544Z,92112.74
2018-03-03T10:00:03.866Z,92111.20
2018-03-03T10:02:30.266Z,92115.41
2018-03-03T10:04:56.592Z,92116.27
2018-03-03T10:07:22.967Z,92117.38
2018-03-03T10:09:49.363Z,92113.40
2018-03-03T10:12:15.765Z,92113.56
2018-03-03T10:14:42.147Z,92106.78
2018-03-03T10:17:08.550Z,92102.86
2018-03-03T10:19:34.927Z,92106.95
2018-03-03T10:22:03.312Z,92095.38
2018-03-03T10:24:29.882Z,92100.13
2018-03-03T10:26:56.451Z,92089.27
2018-03-03T10:29:22.837Z,92090.89
2018-03-03T10:31:51.276Z,92088.59
2018-03-03T10:34:17.704Z,92080.41
2018-03-03T10:36:44.059Z,92083.47
2018-03-03T10:39:10.558Z,92086.05
2018-03-03T10:41:36.957Z,92078.19
2018-03-03T10:44:03.613Z,92077.45
2018-03-03T10:46:30.238Z,92073.10
2018-03-03T10:48:56.700Z,92072.78
2018-03-03T10:51:23.128Z,92070.24
2018-03-03T10:53:49.786Z,92057.72
2018-03-03T10:56:16.249Z,92060.10
2018-03-03T10:58:42.566Z,92061.65
2018-03-03T11:01:09.286Z,92056.38
2018-03-03T11:03:35.641Z,92052.33
2018-03-03T11:06:02.014Z,92049.33
2018-03-03T11:08:28.751Z,92048.08
2018-03-03T11:10:56.183Z,92043.44
2018-03-03T11:13:22.546Z,92044.36
2018-03-03T11:15:49.122Z,92032.59
2018-03-03T11:18:15.606Z,92031.66
2018-03-03T11:20:42.141Z,92028.59
2018-03-03T11:23:08.775Z,92034.25
2018-03-03T11:25:35.246Z,92018.03
2018-03-03T11:28:01.952Z,92024.59
2018-03-03T11:30:28.754Z,92009.88
2018-03-03T11:32:55.194Z,92011.76
2018-03-03T11:35:21.603Z,92020.83
2018-03-03T11:37:48.184Z,92004.89
2018-03-03T11:40:15.015Z,92009.38
2018-03-03T11:42:42.550Z,91999.82
2018-03-03T11:45:09.081Z,92003.64
2018-03-03T11:47:35.741Z,92007.28
2018-03-03T11:50:02.959Z,92010.16
2018-03-03T11:52:37.122Z,92001.64
2018-03-03T11:55:03.561Z,91996.56
2018-03-03T11:57:30.033Z,91996.57
2018-03-03T11:59:56.662Z,91997.70
2018-03-03T12:02:31.226Z,91992.52
2018-03-03T12:04:58.245Z,91997.98
2018-03-03T12:07:24.991Z,92001.37
2018-03-03T12:09:51.545Z,92007.73
2018-03-03T12:12:18.694Z,91996.23
2018-03-03T12:14:46.734Z,91999.70
2018-03-03T12:17:13.419Z,91994.58
2018-03-03T12:19:40.232Z,91994.47
2018-03-03T12:22:10.338Z,91995.35
2018-03-03T12:24:37.633Z,91992.61
2018-03-03T12:27:04.570Z,91996.59
2018-03-03T12:29:31.088Z,92012.67
2018-03-03T12:32:03.938Z,92012.83
2018-03-03T12:34:30.418Z,92014.11
2018-03-03T12:36:56.857Z,92022.25
2018-03-03T12:39:23.460Z,92019.56
2018-03-03T12:41:55.828Z,92019.45
2018-03-03T12:44:23.191Z,92017.41
2018-03-03T12:46:51.176Z,92017.95
2018-03-03T12:49:18.759Z,92012.22
2018-03-03T12:51:46.910Z,92014.63
2018-03-03T12:54:14.454Z,92020.08
2018-03-03T12:56:42.131Z,92011.91
2018-03-03T12:59:08.815Z,92018.66
2018-03-03T13:01:35.894Z,92028.73
2018-03-03T13:04:02.584Z,92036.44
2018-03-03T13:06:29.910Z,92035.98
2018-03-03T13:08:56.989Z,92036.97
2018-03-03T13:11:24.713Z,92036.95
2018-03-03T13:13:51.521Z,92038.45
2018-03-03T13:16:18.008Z,92035.16
2018-03-03T13:18:44.547Z,92039.47
2018-03-03T13:21:11.363Z,92044.08
2018-03-03T13:23:38.050Z,92047.06
2018-03-03T13:26:04.593Z,92058.42
2018-03-03T13:28:31.339Z,92064.71
2018-03-03T13:30:57.900Z,92069.04
2018-03-03T13:33:24.416Z,92065.21
2018-03-03T13:35:51.263Z,92057.59
2018-03-03T13:38:18.001Z,92054.62
2018-03-03T13:40:45.097Z,92047.97
2018-03-03T13:43:12.044Z,92055.48
2018-03-03T13:45:38.631Z,92055.70
2018-03-03T13:48:05.278Z,92064.45
2018-03-03T13:50:32.000Z,92053.62
2018-03-03T13:52:58.839Z,92056.15
2018-03-03T13:55:26.134Z,92051.87
2018-03-03T13:57:53.203Z,92061.04
2018-03-03T14:00:19.757Z,92058.34
2018-03-03T14:02:46.281Z,92065.13
2018-03-03T14:05:12.859Z,92070.47
2018-03-03T14:07:39.866Z,92069.64
2018-03-03T14:10:06.624Z,92068.98
2018-03-03T14:12:36.724Z,92070.78
2018-03-03T14:15:03.487Z,92077.27
2018-03-03T14:17:29.977Z,92070.82
2018-03-03T14:19:57.386Z,92067.19
2018-03-03T14:22:24.344Z,92063.66
2018-03-03T14:24:51.060Z,92061.77
2018-03-03T14:27:17.872Z,92064.31
2018-03-03T14:29:44.647Z,92056.86
2018-03-03T14:32:11.160Z,92066.52
2018-03-03T14:34:37.730Z,92052.33
2018-03-03T14:37:04.311Z,92047.68
2018-03-03T14:39:31.378Z,92050.66
2018-03-03T14:41:58.125Z,92036.49
2018-03-03T14:44:25.011Z,92038.41
2018-03-03T14:46:52.096Z,92045.70
2018-03-03T14:49:19.269Z,92043.04
2018-03-03T14:51:46.788Z,92049.55
2018-03-03T14:54:13.667Z,92051.27
2018-03-03T14:56:40.138Z,92048.83
2018-03-03T14:59:06.777Z,92051.19
2018-03-03T15:01:37.295Z,92058.75
2018-03-03T15:04:04.049Z,92057.45
2018-03-03T15:06:30.693Z,92048.13
2018-03-03T15:08:57.265Z,92053.88
2018-03-03T15:11:23.981Z,92053.16
2018-03-03T15:13:50.688Z,92050.89
2018-03-03T15:16:17.208Z,92056.26
2018-03-03T15:18:43.804Z,92052.23
2018-03-03T15:21:11.351Z,92056.65
2018-03-03T15:23:38.163Z,92055.77
2018-03-03T15:26:04.737Z,92057.05
2018-03-03T15:28:31.308Z,92057.04
2018-03-03T15:30:57.925Z,92059.51
2018-03-03T15:33:24.460Z,92056.77
2018-03-03T15:35:51.141Z,92056.31
2018-03-03T15:38:17.634Z,92053.68
2018-03-03T15:40:44.057Z,92056.49
2018-03-03T15:43:11.828Z,92052.38
2018-03-03T15:45:39.027Z,92048.12
2018-03-03T15:48:05.958Z,92044.83
2018-03-03T15:50:32.524Z,92051.38
2018-03-03T15:52:59.023Z,92055.22
2018-03-03T15:55:25.805Z,92054.28
2018-03-03T15:57:53.140Z,92060.18
2018-03-03T16:00:20.266Z,92065.77
2018-03-03T16:02:47.458Z,92065.08
2018-03-03T16:05:14.320Z,92061.66
2018-03-03T16:07:41.383Z,92058.39
2018-03-03T16:10:07.865Z,92056.78
2018-03-03T16:12:34.356Z,92054.84
2018-03-03T16:15:01.661Z,92057.13
2018-03-03T16:17:28.134Z,92052.36
2018-03-03T16:19:54.782Z,92043.53
2018-03-03T16:22:21.376Z,92049.55
2018-03-03T16:24:47.801Z,92046.42
2018-03-03T16:27:15.038Z,92053.64
2018-03-03T16:29:41.712Z,92057.52
2018-03-03T16:32:08.394Z,92050.24
2018-03-03T16:34:35.424Z,92047.30
2018-03-03T16:37:02.096Z,92055.47
2018-03-03T16:39:28.876Z,92054.69
2018-03-03T16:41:56.522Z,92054.38
2018-03-03T16:44:23.064Z,92052.39
2018-03-03T16:46:49.521Z,92045.70
2018-03-03T16:49:16.258Z,92048.41
2018-03-03T16:51:43.108Z,92046.08
2018-03-03T16:54:09.671Z,92047.19
2018-03-03T16:56:36.287Z,92048.54
2018-03-03T16:59:03.966Z,92046.22
2018-03-03T17:01:30.730Z,92043.58
2018-03-03T17:03:57.305Z,92041.62
2018-03-03T17:06:23.949Z,92042.98
2018-03-03T17:08:50.684Z,92042.89
2018-03-03T17:11:17.342Z,92044.42
2018-03-03T17:13:45.222Z,92034.83
2018-03-03T17:16:11.982Z,92035.05
2018-03-03T17:18:38.935Z,92040.06
2018-03-03T17:21:05.641Z,92040.70
2018-03-03T17:23:32.233Z,92032.41
2018-03-03T17:25:58.961Z,92030.55
2018-03-03T17:28:25.620Z,92031.84
2018-03-03T17:30:52.205Z,92029.00
2018-03-03T17:33:18.987Z,92031.73
2018-03-03T17:35:45.617Z,92036.02
2018-03-03T17:38:12.674Z,92038.77
2018-03-03T17:40:39.563Z,92036.43
2018-03-03T17:43:06.064Z,92032.32
2018-03-03T17:45:32.642Z,92028.64
2018-03-03T17:47:59.206Z,92030.30
2018-03-03T17:50:26.771Z,92033.48
2018-03-03T17:52:53.637Z,92026.86
2018-03-03T17:55:20.534Z,92027.26
2018-03-03T17:57:47.215Z,92020.78
2018-03-03T18:00:14.258Z,92027.30
2018-03-03T18:02:41.195Z,92026.58
2018-03-03T18:05:08.581Z,92021.78
2018-03-03T18:07:35.531Z,92022.09
2018-03-03T18:10:03.022Z,92023.55
2018-03-03T18:12:37.281Z,92031.49
2018-03-03T18:15:04.476Z,92019.59
2018-03-03T18:17:31.223Z,92017.98
2018-03-03T18:19:58.411Z,92022.24
2018-03-03T18:22:25.209Z,92018.17
2018-03-03T18:24:51.926Z,92023.05
2018-03-03T18:27:18.816Z,92012.71
2018-03-03T18:29:45.598Z,92024.66
2018-03-03T18:32:12.612Z,92020.70
2018-03-03T18:34:39.211Z,92030.14
2018-03-03T18:37:06.331Z,92029.86
2018-03-03T18:39:33.423Z,92037.80
2018-03-03T18:42:11.743Z,92040.70
2018-03-03T18:44:38.315Z,92041.64
2018-03-03T18:47:05.004Z,92037.45
2018-03-03T18:49:33.364Z,92044.70
2018-03-03T18:51:59.975Z,92062.48
2018-03-03T18:54:26.928Z,92073.06
2018-03-03T18:56:54.333Z,92073.54
2018-03-03T18:59:21.402Z,92075.05
2018-03-03T19:01:48.307Z,92071.50
2018-03-03T19:04:14.923Z,92076.17
2018-03-03T19:06:41.569Z,92072.22
2018-03-03T19:09:08.515Z,92074.39
2018-03-03T19:11:35.203Z,92073.81
2018-03-03T19:14:01.842Z,92078.02
2018-03-03T19:16:28.694Z,92077.78
2018-03-03T19:18:55.784Z,92079.78
2018-03-03T19:21:22.761Z,92084.06
2018-03-03T19:23:49.616Z,92079.76
2018-03-03T19:26:16.471Z,92074.36
2018-03-03T19:28:43.201Z,92064.64
2018-03-03T19:31:09.753Z,92067.66
2018-03-03T19:33:36.337Z,92058.33
2018-03-03T19:36:03.502Z,92066.80
2018-03-03T19:38:30.058Z,92057.30
2018-03-03T19:40:57.600Z,92047.02
2018-03-03T19:43:24.542Z,92051.61
2018-03-03T19:45:51.113Z,92050.26
2018-03-03T19:48:17.691Z,92049.66
2018-03-03T19:50:44.803Z,92048.62
2018-03-03T19:53:11.311Z,92030.00
2018-03-03T19:55:37.847Z,92029.66
2018-03-03T19:58:04.277Z,92024.19
2018-03-03T20:00:31.201Z,92028.37
2018-03-03T20:02:57.760Z,92027.09
2018-03-03T20:05:24.153Z,92024.41
2018-03-03T20:07:50.534Z,92031.16
2018-03-03T20:10:16.975Z,92030.75
2018-03-03T20:12:43.536Z,92029.47
2018-03-03T20:15:09.996Z,92023.53
2018-03-03T20:17:36.467Z,92019.91
2018-03-03T20:20:02.853Z,92013.09
2018-03-03T20:22:29.369Z,92016.33
2018-03-03T20:24:55.819Z,92014.22
2018-03-03T20:27:22.243Z,91996.17
2018-03-03T20:29:48.588Z,91989.45
2018-03-03T20:32:15.031Z,91985.14
2018-03-03T20:34:41.393Z,91974.86
2018-03-03T20:37:07.770Z,91977.88
2018-03-03T20:39:34.200Z,91970.44
2018-03-03T20:42:00.666Z,91966.53
2018-03-03T20:44:27.071Z,91971.48
2018-03-03T20:46:53.452Z,91963.83
2018-03-03T20:49:19.975Z,91956.09
2018-03-03T20:51:46.360Z,91954.73
2018-03-03T20:54:12.800Z,91944.86
2018-03-03T20:56:39.205Z,91944.80
2018-03-03T20:59:05.699Z,91922.80
2018-03-03T21:01:32.202Z,91926.16
2018-03-03T21:03:58.573Z,91925.42
2018-03-03T21:06:24.931Z,91928.17
2018-03-03T21:08:51.347Z,91925.55
2018-03-03T21:11:34.510Z,91919.52
2018-03-03T21:14:00.995Z,91906.39
2018-03-03T21:16:27.434Z,91900.81
2018-03-03T21:18:53.849Z,91904.84
2018-03-03T21:21:20.390Z,91909.17
2018-03-03T21:23:46.849Z,91907.58
2018-03-03T21:26:13.242Z,91901.03
2018-03-03T21:28:39.663Z,91886.55
2018-03-03T21:31:06.111Z,91868.98
2018-03-03T21:33:32.477Z,91862.84
2018-03-03T21:35:58.847Z,91863.39
2018-03-03T21:38:25.226Z,91853.78
2018-03-03T21:40:51.559Z,91847.66
2018-03-03T21:43:18.065Z,91848.17
2018-03-03T21:45:44.501Z,91875.70
2018-03-03T21:48:10.847Z,91862.66
2018-03-03T21:50:37.248Z,91841.36
2018-03-03T21:53:03.590Z,91839.55
2018-03-03T21:55:30.040Z,91838.37
2018-03-03T21:57:56.424Z,91837.03
2018-03-03T22:00:22.807Z,91842.66
2018-03-03T22:02:49.288Z,91854.08
2018-03-03T22:05:15.668Z,91835.23
2018-03-03T22:07:41.992Z,91842.80
2018-03-03T22:10:08.464Z,91849.16
2018-03-03T22:12:34.922Z,91847.70
2018-03-03T22:15:01.320Z,91844.29
2018-03-03T22:17:27.665Z,91839.24
2018-03-03T22:19:54.102Z,91846.34
2018-03-03T22:22:20.488Z,91845.41
2018-03-03T22:24:46.880Z,91837.04
2018-03-03T22:27:13.319Z,91820.77
2018-03-03T22:29:39.793Z,91815.67
2018-03-03T22:32:06.279Z,91800.28
2018-03-03T22:34:32.752Z,91810.91
2018-03-03T22:36:59.136Z,91806.34
2018-03-03T22:39:25.498Z,91802.46
2018-03-03T22:41:51.930Z,91807.03
2018-03-03T22:44:18.313Z,91798.22
2018-03-03T22:46:44.699Z,91792.06
2018-03-03T22:49:11.121Z,91786.70
2018-03-03T22:51:37.595Z,91800.87
2018-03-03T22:54:03.997Z,91797.98
2018-03-03T22:56:30.499Z,91787.19
2018-03-03T22:58:56.914Z,91792.64
2018-03-03T23:01:23.660Z,91800.02
2018-03-03T23:03:50.050Z,91792.84
2018-03-03T23:06:16.450Z,91784.58
2018-03-03T23:08:42.822Z,91777.60
2018-03-03T23:11:09.283Z,91757.34
2018-03-03T23:13:35.697Z,91757.59
2018-03-03T23:16:02.058Z,91734.13
2018-03-03T23:18:28.516Z,91734.30
2018-03-03T23:20:54.986Z,91747.20
2018-03-03T23:23:21.996Z,91740.52
2018-03-03T23:25:48.363Z,91743.90
2018-03-03T23:28:14.792Z,91748.37
2018-03-03T23:30:41.087Z,91747.75
2018-03-03T23:33:07.528Z,91734.91
2018-03-03T23:35:33.890Z,91724.67
2018-03-03T23:38:00.254Z,91721.68
2018-03-03T23:40:26.643Z,91735.34
2018-03-03T23:42:53.087Z,91721.66
2018-03-03T23:45:19.406Z,91717.24
2018-03-03T23:47:45.777Z,91704.14
2018-03-03T23:50:12.088Z,91700.87
2018-03-03T23:52:38.487Z,91709.56
2018-03-03T23:55:04.906Z,91706.75
2018-03-03T23:57:31.252Z,91712.44
2018-03-03T23:59:57.685Z,91712.28
